createdAt,value
2022-08-12T00:04:20.942Z,19.28
2022-08-12T00:09:38.660Z,19.22
2022-08-12T00:14:58.026Z,19.17
2022-08-12T00:20:18.410Z,19.13
2022-08-12T00:26:00.457Z,19.06
2022-08-12T00:31:13.226Z,19.00
2022-08-12T00:36:43.114Z,18.96
2022-08-12T00:42:05.505Z,18.88
2022-08-12T00:47:25.254Z,18.82
2022-08-12T00:52:30.987Z,18.75
2022-08-12T00:57:39.471Z,18.70
2022-08-12T01:02:48.502Z,18.62
2022-08-12T01:08:06.468Z,18.60
2022-08-12T01:13:19.419Z,18.56
2022-08-12T01:18:27.466Z,18.51
2022-08-12T01:23:48.794Z,18.47
2022-08-12T01:28:59.912Z,18.43
2022-08-12T01:34:28.373Z,18.39
2022-08-12T01:39:35.284Z,18.33
2022-08-12T01:44:42.986Z,18.28
2022-08-12T01:50:05.421Z,18.24
2022-08-12T01:55:13.040Z,18.18
2022-08-12T02:00:22.640Z,18.14
2022-08-12T02:06:05.000Z,18.09
2022-08-12T02:11:22.870Z,18.05
2022-08-12T02:16:53.283Z,17.95
2022-08-12T02:22:14.989Z,17.84
2022-08-12T02:27:22.571Z,17.71
2022-08-12T02:32:30.669Z,17.60
2022-08-12T02:37:38.861Z,17.49
2022-08-12T02:42:54.088Z,17.35
2022-08-12T02:48:09.235Z,17.22
2022-08-12T02:53:15.056Z,17.09
2022-08-12T02:58:21.362Z,17.00
2022-08-12T03:03:41.900Z,16.85
2022-08-12T03:08:53.887Z,16.72
2022-08-12T03:14:03.293Z,16.62
2022-08-12T03:19:12.358Z,16.49
2022-08-12T03:24:20.367Z,16.36
2022-08-12T03:29:30.628Z,16.22
2022-08-12T03:34:39.844Z,16.11
2022-08-12T03:39:46.980Z,16.00
2022-08-12T03:45:12.031Z,15.92
2022-08-12T03:56:02.198Z,15.71
2022-08-12T04:01:07.730Z,15.64
2022-08-12T04:06:16.372Z,15.57
2022-08-12T04:11:54.967Z,15.52
2022-08-12T04:17:00.081Z,15.46
2022-08-12T04:22:07.920Z,15.38
2022-08-12T04:27:14.412Z,15.30
2022-08-12T04:32:19.450Z,15.25
2022-08-12T04:37:27.027Z,15.19
2022-08-12T04:42:32.777Z,15.06
2022-08-12T04:47:38.319Z,14.89
2022-08-12T04:52:46.923Z,14.75
2022-08-12T04:57:53.562Z,14.54
2022-08-12T05:02:58.574Z,14.51
2022-08-12T05:08:08.033Z,14.48
2022-08-12T05:13:15.512Z,14.49
2022-08-12T05:18:20.906Z,14.55
2022-08-12T05:23:32.242Z,14.61
2022-08-12T05:28:37.664Z,14.70
2022-08-12T05:33:45.962Z,14.80
2022-08-12T05:38:59.730Z,14.93
2022-08-12T05:44:07.058Z,15.07
2022-08-12T05:49:12.351Z,15.23
2022-08-12T05:54:31.001Z,15.38
2022-08-12T05:59:46.652Z,15.58
2022-08-12T06:04:54.302Z,15.74
2022-08-12T06:10:02.320Z,15.91
2022-08-12T06:15:09.255Z,16.07
2022-08-12T06:20:27.228Z,16.22
2022-08-12T06:25:37.571Z,16.41
2022-08-12T06:30:42.565Z,16.59
2022-08-12T06:35:50.427Z,16.79
2022-08-12T06:41:13.280Z,16.99
2022-08-12T06:46:18.485Z,17.23
2022-08-12T06:51:23.596Z,17.49
2022-08-12T06:57:01.892Z,17.71
2022-08-12T07:01:57.104Z,18.13
2022-08-12T07:07:03.111Z,18.49
2022-08-12T07:12:20.058Z,18.92
2022-08-12T07:17:25.754Z,19.27
2022-08-12T07:22:31.050Z,19.78
2022-08-12T07:27:43.689Z,20.11
2022-08-12T07:32:49.912Z,20.66
2022-08-12T07:37:55.932Z,20.87
2022-08-12T07:43:03.882Z,21.27
2022-08-12T07:48:09.220Z,21.57
2022-08-12T07:53:14.192Z,21.83
2022-08-12T07:58:22.358Z,22.05
2022-08-12T08:03:28.307Z,22.32
2022-08-12T08:08:34.151Z,22.61
2022-08-12T08:13:42.449Z,22.82
2022-08-12T08:18:47.559Z,22.96
2022-08-12T08:24:05.457Z,23.08
2022-08-12T08:29:14.620Z,23.31
2022-08-12T08:34:33.668Z,23.46
2022-08-12T08:39:46.874Z,23.57
2022-08-12T08:44:58.969Z,23.58
2022-08-12T08:50:04.357Z,23.69
2022-08-12T08:55:10.429Z,23.81
2022-08-12T09:00:20.592Z,23.92
2022-08-12T09:05:26.070Z,24.03
2022-08-12T09:10:32.615Z,24.25
2022-08-12T09:15:41.839Z,24.44
2022-08-12T09:20:50.993Z,24.55
2022-08-12T09:25:56.309Z,24.76
2022-08-12T09:32:03.206Z,24.92
2022-08-12T09:36:58.364Z,24.98
2022-08-12T09:42:38.073Z,25.18
2022-08-12T09:47:37.768Z,25.32
2022-08-12T09:52:45.924Z,25.47
2022-08-12T09:58:07.565Z,25.59
2022-08-12T10:03:32.210Z,25.82
2022-08-12T10:08:40.237Z,25.92
2022-08-12T10:13:46.436Z,26.06
2022-08-12T10:18:57.541Z,26.14
2022-08-12T10:24:05.217Z,26.14
2022-08-12T10:30:03.582Z,26.25
2022-08-12T10:34:57.102Z,26.21
2022-08-12T10:40:09.575Z,26.46
2022-08-12T10:45:18.077Z,26.55
2022-08-12T10:50:28.638Z,26.65
2022-08-12T10:55:42.828Z,26.74
2022-08-12T11:01:25.611Z,26.69
2022-08-12T11:07:08.937Z,26.74
2022-08-12T11:12:35.771Z,26.74
2022-08-12T11:17:43.989Z,26.99
2022-08-12T11:22:41.021Z,26.97
2022-08-12T11:27:46.298Z,26.98
2022-08-12T11:32:56.222Z,27.04
2022-08-12T11:38:06.227Z,27.02
2022-08-12T11:43:19.855Z,27.17
2022-08-12T11:48:27.129Z,27.32
2022-08-12T11:53:57.263Z,27.53
2022-08-12T12:02:01.679Z,27.77
2022-08-12T12:04:28.939Z,27.86
2022-08-12T12:09:52.535Z,27.89
2022-08-12T12:15:03.187Z,28.10
2022-08-12T12:20:14.640Z,28.08
2022-08-12T12:26:07.551Z,28.13
2022-08-12T12:30:54.685Z,28.40
2022-08-12T12:36:18.630Z,28.55
2022-08-12T12:42:42.021Z,28.88
2022-08-12T12:46:52.885Z,28.99
2022-08-12T12:52:19.606Z,29.13
2022-08-12T12:57:36.230Z,29.29
2022-08-12T13:02:55.805Z,29.43
2022-08-12T13:08:04.184Z,29.70
2022-08-12T13:14:09.249Z,30.04
2022-08-12T13:18:39.465Z,30.48
2022-08-12T13:23:48.062Z,30.63
2022-08-12T13:28:56.748Z,30.73
2022-08-12T13:39:30.313Z,29.67
2022-08-12T13:44:37.711Z,29.79
2022-08-12T13:49:54.858Z,30.20
2022-08-12T13:55:06.190Z,30.36
2022-08-12T14:00:15.565Z,30.54
2022-08-12T14:05:37.982Z,30.38
2022-08-12T14:10:50.462Z,30.12
2022-08-12T14:16:01.498Z,29.94
2022-08-12T14:21:18.190Z,30.29
2022-08-12T14:26:28.854Z,30.80
2022-08-12T14:31:43.087Z,30.86
2022-08-12T14:36:48.071Z,31.09
2022-08-12T14:41:57.409Z,30.96
2022-08-12T14:47:07.709Z,30.97
2022-08-12T14:53:50.650Z,31.12
2022-08-12T14:57:56.548Z,31.27
2022-08-12T15:03:06.356Z,31.63
2022-08-12T15:08:17.107Z,31.42
2022-08-12T15:13:27.872Z,31.10
2022-08-12T15:18:36.442Z,30.83
2022-08-12T15:23:54.858Z,31.19
2022-08-12T15:29:00.545Z,31.60
2022-08-12T15:34:09.103Z,31.77
2022-08-12T15:39:16.752Z,31.71
2022-08-12T15:44:38.654Z,31.77
2022-08-12T15:50:00.147Z,32.10
2022-08-12T15:55:11.641Z,32.19
2022-08-12T16:00:31.614Z,32.11
2022-08-12T16:06:19.435Z,31.40
2022-08-12T16:11:14.755Z,31.07
2022-08-12T16:16:23.717Z,31.17
2022-08-12T16:21:52.719Z,31.41
2022-08-12T16:26:57.368Z,31.79
2022-08-12T16:32:06.407Z,31.80
2022-08-12T16:37:15.792Z,31.69
2022-08-12T16:42:22.698Z,31.34
2022-08-12T16:47:43.907Z,30.98
2022-08-12T16:53:03.319Z,30.72
2022-08-12T16:58:28.341Z,30.66
2022-08-12T17:03:37.780Z,30.61
2022-08-12T17:08:55.226Z,30.87
2022-08-12T17:14:01.730Z,30.55
2022-08-12T17:19:09.186Z,30.21
2022-08-12T17:24:22.473Z,30.00
2022-08-12T17:30:00.888Z,29.64
2022-08-12T17:35:16.390Z,29.59
2022-08-12T17:40:35.243Z,29.55
2022-08-12T17:45:47.330Z,29.27
2022-08-12T17:50:53.930Z,29.12
2022-08-12T17:56:03.021Z,28.93
2022-08-12T18:01:11.455Z,28.49
2022-08-12T18:06:16.352Z,28.02
2022-08-12T18:12:03.870Z,27.70
2022-08-12T18:17:02.698Z,27.29
2022-08-12T18:22:08.030Z,26.94
2022-08-12T18:27:30.196Z,26.69
2022-08-12T18:32:58.294Z,26.38
2022-08-12T18:38:05.677Z,26.19
2022-08-12T18:43:16.784Z,25.93
2022-08-12T18:48:23.719Z,25.71
2022-08-12T18:54:07.374Z,25.52
2022-08-12T18:58:59.430Z,25.28
2022-08-12T19:04:06.919Z,25.08
2022-08-12T19:09:15.576Z,24.89
2022-08-12T19:14:29.661Z,24.72
2022-08-12T19:19:41.568Z,24.54
2022-08-12T19:24:59.701Z,24.37
2022-08-12T19:30:08.988Z,24.26
2022-08-12T19:40:40.384Z,23.91
2022-08-12T19:45:56.668Z,23.77
2022-08-12T19:51:22.761Z,23.62
2022-08-12T19:56:28.320Z,23.41
2022-08-12T20:02:01.697Z,23.25
2022-08-12T20:07:05.444Z,23.09
2022-08-12T20:12:18.057Z,22.98
2022-08-12T20:17:36.179Z,22.87
2022-08-12T20:29:04.240Z,22.62
2022-08-12T20:34:19.439Z,22.51
2022-08-12T20:39:52.314Z,22.35
2022-08-12T20:44:49.831Z,22.24
2022-08-12T20:50:00.150Z,22.11
2022-08-12T20:55:15.362Z,22.01
2022-08-12T21:00:28.395Z,21.85
2022-08-12T21:06:12.281Z,21.74
2022-08-12T21:11:13.063Z,21.64
2022-08-12T21:16:35.367Z,21.56
2022-08-12T21:21:50.215Z,21.46
2022-08-12T21:27:03.351Z,21.29
2022-08-12T21:32:36.574Z,21.18
2022-08-12T21:37:41.651Z,21.05
2022-08-12T21:42:47.445Z,20.97
2022-08-12T21:47:53.546Z,20.91
2022-08-12T21:53:10.031Z,20.84
2022-08-12T21:58:21.241Z,20.72
2022-08-12T22:04:03.023Z,20.53
2022-08-12T22:09:16.006Z,20.33
2022-08-12T22:14:24.983Z,20.25
2022-08-12T22:19:33.635Z,20.21
2022-08-12T22:24:44.185Z,20.11
2022-08-12T22:30:02.925Z,19.98
2022-08-12T22:35:23.338Z,19.78
2022-08-12T22:40:36.330Z,19.60
2022-08-12T22:45:56.494Z,19.49
2022-08-12T22:51:03.801Z,19.29
2022-08-12T22:56:14.614Z,19.24
2022-08-12T23:01:28.636Z,19.14
2022-08-12T23:06:48.540Z,19.06
2022-08-12T23:12:02.361Z,19.01
2022-08-12T23:17:35.199Z,18.94
2022-08-12T23:22:36.281Z,18.87
2022-08-12T23:27:59.957Z,18.79
2022-08-12T23:33:20.058Z,18.72
2022-08-12T23:38:31.658Z,18.62
2022-08-12T23:43:42.915Z,18.58
2022-08-12T23:48:56.892Z,18.52
2022-08-12T23:54:07.430Z,18.44
2022-08-12T23:59:16.670Z,18.36
